Time;durP1;ratioP1;P1;durP2;ratioP2;P2;SDS_P1;SDS_P2;PMS_P1;PMS_P2;Temp;Humidity;BMP_temperature;BMP_pressure;BME280_temperature;BME280_humidity;BME280_pressure;Samples;Min_cycle;Max_cycle;Signal;HPM_P1;HPM_P2
2022/01/01 00:00:42;;;;;;;37.13;21.23;;;7.20;99.90;;;;;;4981218;28;20359;-68
2022/01/01 00:03:08;;;;;;;29.48;17.60;;;7.30;99.90;;;;;;4981675;28;20050;-68
2022/01/01 00:05:34;;;;;;;23.88;14.00;;;7.30;99.90;;;;;;4981976;28;20417;-68
2022/01/01 00:08:01;;;;;;;23.80;13.40;;;7.20;99.90;;;;;;4973358;28;20666;-68
2022/01/01 00:10:27;;;;;;;24.80;12.57;;;7.20;99.90;;;;;;4982662;28;20038;-69
2022/01/01 00:12:52;;;;;;;21.35;12.85;;;7.20;99.90;;;;;;4981499;28;20038;-68
2022/01/01 00:15:19;;;;;;;26.48;16.35;;;7.20;99.90;;;;;;4986339;28;20730;-68
2022/01/01 00:17:45;;;;;;;20.60;12.20;;;7.20;99.90;;;;;;4985835;28;20048;-68
2022/01/01 00:20:12;;;;;;;21.80;11.75;;;7.20;99.90;;;;;;4983412;28;20033;-68
2022/01/01 00:22:39;;;;;;;22.45;11.40;;;7.20;99.90;;;;;;4983521;28;20081;-68
2022/01/01 00:25:06;;;;;;;17.30;11.73;;;7.20;99.90;;;;;;4981265;28;20121;-68
2022/01/01 00:27:32;;;;;;;20.92;11.63;;;7.20;99.90;;;;;;4982268;28;20450;-68
2022/01/01 00:29:57;;;;;;;18.20;10.65;;;7.20;99.90;;;;;;4987199;28;20069;-68
2022/01/01 00:32:23;;;;;;;16.60;10.15;;;7.20;99.90;;;;;;4986587;28;20042;-68
2022/01/01 00:34:50;;;;;;;16.73;9.90;;;7.20;99.90;;;;;;4980074;28;20026;-68
2022/01/01 00:37:17;;;;;;;19.13;11.05;;;7.20;99.90;;;;;;4979824;28;20121;-68
2022/01/01 00:39:42;;;;;;;17.38;10.70;;;7.20;99.90;;;;;;4975539;28;20038;-68
2022/01/01 00:42:08;;;;;;;17.92;10.75;;;7.10;99.90;;;;;;4971748;28;20038;-68
2022/01/01 00:44:34;;;;;;;16.40;10.02;;;7.10;99.90;;;;;;4970101;28;20874;-68
2022/01/01 00:47:00;;;;;;;20.40;11.45;;;7.00;99.90;;;;;;4981289;28;20389;-68
2022/01/01 00:49:27;;;;;;;20.67;10.32;;;7.00;99.90;;;;;;4976371;28;20444;-68
2022/01/01 00:51:52;;;;;;;19.75;9.82;;;7.00;99.90;;;;;;4983553;28;20821;-68
2022/01/01 00:54:18;;;;;;;18.00;10.27;;;7.00;99.90;;;;;;4977776;28;20034;-69
2022/01/01 00:56:44;;;;;;;18.70;10.23;;;7.00;99.90;;;;;;4974646;28;20738;-69
2022/01/01 00:59:10;;;;;;;14.65;8.98;;;7.00;99.90;;;;;;4980403;28;20037;-69
2022/01/01 01:01:37;;;;;;;15.85;9.43;;;7.00;99.90;;;;;;4978504;28;20429;-68
2022/01/01 01:04:03;;;;;;;15.05;8.63;;;6.70;99.90;;;;;;4972236;28;20046;-67
2022/01/01 01:06:29;;;;;;;15.82;8.88;;;6.50;99.90;;;;;;4973325;28;20133;-68
2022/01/01 01:08:58;;;;;;;16.95;9.23;;;6.40;99.90;;;;;;4973052;28;20432;-68
2022/01/01 01:11:24;;;;;;;17.67;9.02;;;6.30;99.90;;;;;;4980957;28;20034;-68
2022/01/01 01:13:57;;;;;;;11.13;7.78;;;6.20;99.90;;;;;;4973119;28;20042;-69
2022/01/01 01:16:23;;;;;;;14.95;8.48;;;6.20;99.90;;;;;;4970707;28;20085;-68
2022/01/01 01:18:50;;;;;;;15.68;9.48;;;6.10;99.90;;;;;;4968543;28;20113;-68
2022/01/01 01:21:15;;;;;;;18.05;9.00;;;6.10;99.90;;;;;;4972907;28;20034;-67
2022/01/01 01:23:42;;;;;;;15.02;8.88;;;6.10;99.90;;;;;;4972478;28;21609;-68
2022/01/01 01:26:08;;;;;;;15.73;8.27;;;6.10;99.90;;;;;;4979984;28;20058;-68
2022/01/01 01:28:34;;;;;;;12.45;7.88;;;6.10;99.90;;;;;;4975278;28;20034;-68
2022/01/01 01:31:00;;;;;;;13.82;7.50;;;5.90;99.90;;;;;;4978469;28;20047;-68
2022/01/01 01:33:26;;;;;;;11.43;6.68;;;5.90;99.90;;;;;;4983045;28;20072;-68
2022/01/01 01:35:52;;;;;;;14.15;7.20;;;6.10;99.90;;;;;;4973086;28;20100;-68
2022/01/01 01:38:17;;;;;;;12.38;6.75;;;6.20;99.90;;;;;;4972807;28;20042;-68
2022/01/01 01:40:43;;;;;;;11.43;6.68;;;6.30;99.90;;;;;;4981714;28;20104;-69
2022/01/01 01:43:10;;;;;;;12.63;7.15;;;6.30;99.90;;;;;;4983107;28;20449;-69
2022/01/01 01:45:36;;;;;;;11.25;6.65;;;6.40;99.90;;;;;;4984205;28;21232;-69
2022/01/01 01:48:02;;;;;;;9.75;6.40;;;6.50;99.90;;;;;;4981070;28;20046;-69
2022/01/01 01:50:28;;;;;;;10.35;6.30;;;6.40;99.90;;;;;;4973650;28;20041;-68
2022/01/01 01:52:58;;;;;;;15.57;6.30;;;6.40;99.90;;;;;;4974953;28;20038;-68
2022/01/01 01:55:27;;;;;;;9.70;6.53;;;6.30;99.90;;;;;;4977143;28;20022;-68
2022/01/01 01:57:53;;;;;;;;;;;6.40;99.90;;;;;;4979056;28;20065;-68
2022/01/01 02:03:09;;;;;;;9.70;5.50;;;6.50;99.90;;;;;;4974637;28;20133;-68
2022/01/01 02:05:36;;;;;;;11.57;6.50;;;6.50;99.90;;;;;;4979285;28;20966;-68
2022/01/01 02:08:03;;;;;;;9.77;5.25;;;6.50;99.90;;;;;;4976676;28;20038;-68
2022/01/01 02:10:30;;;;;;;10.52;5.45;;;6.50;99.90;;;;;;4973942;28;20474;-68
2022/01/01 02:12:57;;;;;;;11.38;5.72;;;6.50;99.90;;;;;;4975627;28;20038;-67
2022/01/01 02:15:41;;;;;;;8.80;5.38;;;6.60;99.90;;;;;;4974722;28;20108;-68
2022/01/01 02:18:06;;;;;;;9.40;5.65;;;6.60;99.90;;;;;;4976129;28;20136;-68
2022/01/01 02:20:32;;;;;;;9.23;5.38;;;6.70;99.90;;;;;;4975851;28;22702;-68
2022/01/01 02:23:00;;;;;;;14.30;5.85;;;6.70;99.90;;;;;;4978022;28;20053;-68
2022/01/01 02:25:26;;;;;;;8.70;5.00;;;6.70;99.90;;;;;;4976317;28;20065;-68
2022/01/01 02:27:51;;;;;;;7.93;5.32;;;6.70;99.90;;;;;;4976351;28;20038;-68
2022/01/01 02:30:17;;;;;;;9.27;4.82;;;6.80;99.90;;;;;;4975947;28;20030;-69
2022/01/01 02:32:43;;;;;;;9.00;5.80;;;6.80;99.90;;;;;;4973970;28;20047;-68
2022/01/01 02:35:11;;;;;;;9.43;5.28;;;6.80;99.90;;;;;;4973175;28;20049;-68
2022/01/01 02:37:38;;;;;;;8.67;5.60;;;6.80;99.90;;;;;;4980630;28;20184;-68
2022/01/01 02:40:05;;;;;;;8.60;5.47;;;6.80;99.90;;;;;;4973274;28;20567;-68
2022/01/01 02:42:31;;;;;;;8.27;5.60;;;6.80;99.90;;;;;;4977510;28;20042;-68
2022/01/01 02:44:58;;;;;;;7.63;4.57;;;6.80;99.90;;;;;;4976247;28;20192;-68
2022/01/01 02:47:24;;;;;;;8.87;5.07;;;6.80;99.90;;;;;;4974273;28;20046;-67
2022/01/01 02:49:50;;;;;;;11.55;5.13;;;6.80;99.90;;;;;;4978559;28;20030;-68
2022/01/01 02:52:15;;;;;;;9.45;5.68;;;6.80;99.90;;;;;;4974380;28;20112;-69
2022/01/01 02:54:41;;;;;;;9.50;5.07;;;6.70;99.90;;;;;;4974570;28;20120;-68
2022/01/01 02:57:06;;;;;;;10.30;6.00;;;6.70;99.90;;;;;;4974792;28;20506;-68
2022/01/01 02:59:32;;;;;;;7.10;5.15;;;6.60;99.90;;;;;;4979216;28;20030;-68
2022/01/01 03:01:58;;;;;;;8.80;5.65;;;6.50;99.90;;;;;;4976056;28;20705;-68
2022/01/01 03:04:23;;;;;;;10.95;5.80;;;6.50;99.90;;;;;;4970409;28;20040;-68
2022/01/01 03:06:54;;;;;;;10.57;5.93;;;6.50;99.90;;;;;;4974346;28;20038;-68
2022/01/01 03:09:21;;;;;;;9.05;5.53;;;6.50;99.90;;;;;;4974612;28;20163;-68
2022/01/01 03:11:46;;;;;;;9.40;5.50;;;6.60;99.90;;;;;;4971722;28;20128;-68
2022/01/01 03:14:17;;;;;;;8.43;5.38;;;6.50;99.90;;;;;;4972138;28;20400;-68
2022/01/01 03:16:47;;;;;;;7.70;4.93;;;6.40;99.90;;;;;;4975054;28;20042;-68
2022/01/01 03:19:13;;;;;;;8.27;5.38;;;6.30;99.90;;;;;;4978715;28;20034;-67
2022/01/01 03:21:39;;;;;;;7.50;5.70;;;6.30;99.90;;;;;;4972290;28;20052;-68
2022/01/01 03:24:06;;;;;;;8.73;5.47;;;6.30;99.90;;;;;;4974963;28;20034;-68
2022/01/01 03:26:31;;;;;;;9.35;5.90;;;6.20;99.90;;;;;;4980736;28;20084;-68
2022/01/01 03:28:57;;;;;;;8.13;5.55;;;6.10;99.90;;;;;;4971427;28;20129;-68
2022/01/01 03:31:24;;;;;;;13.32;6.43;;;5.90;99.90;;;;;;4971896;28;20096;-68
2022/01/01 03:33:51;;;;;;;10.07;5.45;;;5.90;99.90;;;;;;4973018;28;20279;-68
2022/01/01 03:36:16;;;;;;;8.65;5.03;;;5.90;99.90;;;;;;4973472;28;20034;-68
2022/01/01 03:38:42;;;;;;;8.20;5.05;;;5.80;99.90;;;;;;4969027;28;20398;-68
2022/01/01 03:41:08;;;;;;;9.35;4.65;;;5.70;99.90;;;;;;4973688;28;22362;-68
2022/01/01 03:43:33;;;;;;;10.15;5.72;;;5.80;99.90;;;;;;4978214;28;21084;-68
2022/01/01 03:45:59;;;;;;;8.43;5.00;;;5.70;99.90;;;;;;4975598;28;20746;-68
2022/01/01 03:48:24;;;;;;;8.40;5.55;;;5.60;99.90;;;;;;4969528;28;20120;-68
2022/01/01 03:50:50;;;;;;;8.38;5.40;;;5.50;99.90;;;;;;4974480;28;20058;-68
2022/01/01 03:53:16;;;;;;;11.90;6.22;;;5.60;99.90;;;;;;4979303;28;20066;-68
2022/01/01 03:55:42;;;;;;;7.85;5.03;;;5.30;99.90;;;;;;4973324;28;20041;-68
2022/01/01 03:58:08;;;;;;;7.20;4.93;;;5.40;99.90;;;;;;4972633;28;20065;-68
2022/01/01 04:00:34;;;;;;;9.00;5.13;;;5.40;99.90;;;;;;4971712;28;20194;-69
2022/01/01 04:03:10;;;;;;;9.75;5.18;;;5.40;99.90;;;;;;4973849;28;20049;-68
2022/01/01 04:05:37;;;;;;;8.82;5.15;;;5.20;99.90;;;;;;4971983;28;20040;-68
2022/01/01 04:08:04;;;;;;;6.90;4.03;;;5.20;99.90;;;;;;4971256;28;20041;-68
2022/01/01 04:10:31;;;;;;;6.13;4.25;;;5.20;99.90;;;;;;4970015;28;20039;-68
2022/01/01 04:13:00;;;;;;;10.60;3.97;;;5.00;99.90;;;;;;4971211;28;20045;-69
2022/01/01 04:15:29;;;;;;;9.00;4.75;;;5.10;99.90;;;;;;4972201;28;20039;-68
2022/01/01 04:17:58;;;;;;;7.05;4.82;;;5.10;99.90;;;;;;4977157;28;20492;-69
2022/01/01 04:20:24;;;;;;;5.97;4.07;;;5.20;99.90;;;;;;4972515;28;20031;-68
2022/01/01 04:22:54;;;;;;;9.07;5.30;;;5.20;99.90;;;;;;4976053;28;20034;-68
2022/01/01 04:25:21;;;;;;;9.70;5.18;;;5.10;99.90;;;;;;4973205;28;20135;-69
2022/01/01 04:27:47;;;;;;;7.85;4.97;;;5.00;99.90;;;;;;4973392;28;20928;-68
2022/01/01 04:30:13;;;;;;;9.82;5.63;;;4.90;99.90;;;;;;4970369;28;20118;-68
2022/01/01 04:32:39;;;;;;;9.70;5.97;;;4.60;99.90;;;;;;4970677;28;20042;-68
2022/01/01 04:35:05;;;;;;;14.63;11.40;;;4.50;99.90;;;;;;4972389;28;20087;-69
2022/01/01 04:37:31;;;;;;;11.48;7.07;;;4.80;99.90;;;;;;4969764;28;20045;-68
2022/01/01 04:39:59;;;;;;;20.85;18.67;;;4.80;99.90;;;;;;4968970;28;20038;-68
2022/01/01 04:42:26;;;;;;;11.73;8.13;;;4.90;99.90;;;;;;4973126;28;20034;-68
2022/01/01 04:44:52;;;;;;;11.45;6.97;;;4.90;99.90;;;;;;4971864;28;20125;-68
2022/01/01 04:47:18;;;;;;;7.47;4.95;;;4.90;99.90;;;;;;4977344;28;20126;-68
2022/01/01 04:49:43;;;;;;;8.68;5.50;;;4.80;99.90;;;;;;4973526;28;20042;-67
2022/01/01 04:52:09;;;;;;;8.75;4.97;;;4.70;99.90;;;;;;4971135;28;20033;-67
2022/01/01 04:54:39;;;;;;;9.40;5.40;;;4.50;99.90;;;;;;4973652;28;20038;-67
2022/01/01 04:57:05;;;;;;;8.70;4.95;;;4.50;99.90;;;;;;4973571;28;20100;-67
2022/01/01 04:59:30;;;;;;;9.50;5.20;;;4.60;99.90;;;;;;4973018;28;20824;-67
2022/01/01 05:01:56;;;;;;;9.48;5.20;;;4.50;99.90;;;;;;4973038;28;20058;-67
2022/01/01 05:04:22;;;;;;;8.13;5.45;;;4.60;99.90;;;;;;4969083;28;20085;-67
2022/01/01 05:06:49;;;;;;;6.88;4.40;;;4.70;99.90;;;;;;4970566;28;20987;-67
2022/01/01 05:09:16;;;;;;;9.02;4.85;;;4.50;99.90;;;;;;4986617;28;20029;-67
2022/01/01 05:11:43;;;;;;;7.63;4.75;;;4.40;99.90;;;;;;4975439;28;20458;-67
2022/01/01 05:14:09;;;;;;;7.85;4.25;;;4.30;99.90;;;;;;4972732;28;20034;-68
2022/01/01 05:16:34;;;;;;;6.35;4.80;;;4.40;99.90;;;;;;4974290;28;20561;-67
2022/01/01 05:19:00;;;;;;;6.97;4.00;;;4.50;99.90;;;;;;4974335;28;20026;-67
2022/01/01 05:21:30;;;;;;;4.90;3.40;;;4.50;99.90;;;;;;4973361;28;20037;-67
2022/01/01 05:23:56;;;;;;;6.10;4.47;;;4.50;99.90;;;;;;4974641;28;20038;-67
2022/01/01 05:26:21;;;;;;;6.25;3.97;;;4.50;99.90;;;;;;4973167;28;20162;-68
2022/01/01 05:28:49;;;;;;;4.90;3.58;;;4.40;99.90;;;;;;4973368;28;21443;-67
2022/01/01 05:31:15;;;;;;;4.85;3.50;;;4.40;99.90;;;;;;4972358;28;20207;-67
2022/01/01 05:33:41;;;;;;;4.72;3.60;;;4.40;99.90;;;;;;4975449;28;20133;-68
2022/01/01 05:36:07;;;;;;;3.55;3.20;;;4.40;99.90;;;;;;4970065;28;20087;-68
2022/01/01 05:38:32;;;;;;;5.05;3.28;;;4.30;99.90;;;;;;4972917;28;20035;-68
2022/01/01 05:40:58;;;;;;;4.68;3.42;;;4.30;99.90;;;;;;4976204;28;20030;-68
2022/01/01 05:43:23;;;;;;;4.35;3.20;;;4.20;99.90;;;;;;4973442;28;20046;-68
2022/01/01 05:45:49;;;;;;;6.28;3.85;;;4.10;99.90;;;;;;4975705;28;20028;-68
2022/01/01 05:48:15;;;;;;;4.75;3.17;;;4.30;99.90;;;;;;4976834;28;20034;-68
2022/01/01 05:50:41;;;;;;;6.47;3.55;;;4.30;99.90;;;;;;4978099;28;20045;-69
2022/01/01 05:53:07;;;;;;;4.75;3.50;;;4.20;99.90;;;;;;4979301;28;20030;-68
2022/01/01 05:55:33;;;;;;;6.15;3.67;;;4.30;99.90;;;;;;4978516;28;20042;-68
2022/01/01 05:57:59;;;;;;;4.88;3.15;;;4.30;99.90;;;;;;4975902;28;20033;-68
2022/01/01 06:00:25;;;;;;;6.40;3.38;;;4.30;99.90;;;;;;4971677;28;20042;-68
2022/01/01 06:02:50;;;;;;;5.97;3.65;;;4.20;99.90;;;;;;4978225;28;20052;-68
2022/01/01 06:05:18;;;;;;;5.35;3.42;;;4.20;99.90;;;;;;4975195;28;20041;-68
2022/01/01 06:07:43;;;;;;;5.93;3.80;;;4.20;99.90;;;;;;4974977;28;20036;-69
2022/01/01 06:10:09;;;;;;;4.85;3.25;;;4.10;99.90;;;;;;4975653;28;20038;-69
2022/01/01 06:12:41;;;;;;;4.30;2.95;;;4.00;99.90;;;;;;4975446;28;20037;-69
2022/01/01 06:15:07;;;;;;;5.20;3.72;;;4.00;99.90;;;;;;4973985;28;20038;-69
2022/01/01 06:17:32;;;;;;;3.90;2.95;;;4.00;99.90;;;;;;4975850;28;20034;-69
2022/01/01 06:19:58;;;;;;;3.85;2.67;;;4.00;99.90;;;;;;4981716;28;20030;-69
2022/01/01 06:22:23;;;;;;;4.82;2.95;;;4.10;99.90;;;;;;4978101;28;20489;-69
2022/01/01 06:24:49;;;;;;;5.70;3.10;;;4.00;99.90;;;;;;4982339;28;20031;-69
2022/01/01 06:27:15;;;;;;;3.15;2.90;;;4.10;99.90;;;;;;4984582;28;20105;-69
2022/01/01 06:29:40;;;;;;;4.88;2.67;;;4.00;99.90;;;;;;4976731;28;20081;-69
2022/01/01 06:32:06;;;;;;;4.53;2.97;;;4.00;99.90;;;;;;4968807;28;20605;-69
2022/01/01 06:34:32;;;;;;;4.45;2.65;;;3.90;99.90;;;;;;4968099;28;20061;-68
2022/01/01 06:36:57;;;;;;;4.65;3.22;;;4.00;99.90;;;;;;4973103;28;20034;-68
2022/01/01 06:39:23;;;;;;;3.92;3.28;;;4.00;99.90;;;;;;4971698;28;20125;-68
2022/01/01 06:41:48;;;;;;;5.68;3.53;;;3.90;99.90;;;;;;4969165;28;20434;-68
2022/01/01 06:44:14;;;;;;;4.63;3.22;;;3.90;99.90;;;;;;4970007;28;20116;-68
2022/01/01 06:46:40;;;;;;;5.43;3.60;;;3.80;99.90;;;;;;4971011;28;20033;-68
2022/01/01 06:49:06;;;;;;;7.85;3.17;;;3.60;99.90;;;;;;4968651;28;20748;-68
2022/01/01 06:51:32;;;;;;;6.50;4.20;;;3.60;99.90;;;;;;4968916;28;20049;-68
2022/01/01 06:53:58;;;;;;;5.30;3.70;;;3.60;99.90;;;;;;4970743;28;20147;-68
2022/01/01 06:56:24;;;;;;;4.70;3.30;;;3.60;99.90;;;;;;4972350;28;20123;-68
2022/01/01 06:58:49;;;;;;;5.75;3.47;;;3.60;99.90;;;;;;4969566;28;20035;-68
2022/01/01 07:01:15;;;;;;;5.13;3.17;;;3.70;99.90;;;;;;4969823;28;20413;-68
2022/01/01 07:03:41;;;;;;;3.47;2.78;;;3.60;99.90;;;;;;4969776;28;20056;-68
2022/01/01 07:06:07;;;;;;;5.05;3.40;;;3.50;99.90;;;;;;4969832;28;20030;-68
2022/01/01 07:08:32;;;;;;;5.15;3.40;;;3.50;99.90;;;;;;4970569;28;20525;-70
2022/01/01 07:10:58;;;;;;;4.80;3.70;;;3.60;99.90;;;;;;4969229;28;20036;-69
2022/01/01 07:13:25;;;;;;;5.75;3.70;;;3.60;99.90;;;;;;4972229;28;20118;-69
2022/01/01 07:15:51;;;;;;;3.97;3.20;;;3.60;99.90;;;;;;4967386;28;20509;-69
2022/01/01 07:18:17;;;;;;;4.05;3.40;;;3.70;99.90;;;;;;4974712;28;20723;-69
2022/01/01 07:20:43;;;;;;;6.50;3.92;;;3.70;99.90;;;;;;4973664;28;20054;-71
2022/01/01 07:23:10;;;;;;;10.45;3.78;;;3.70;99.90;;;;;;4972283;28;20053;-69
2022/01/01 07:25:35;;;;;;;5.13;3.20;;;3.70;99.90;;;;;;4969798;28;20049;-69
2022/01/01 07:28:01;;;;;;;4.72;3.10;;;3.70;99.90;;;;;;4970843;28;20038;-69
2022/01/01 07:30:27;;;;;;;5.72;3.80;;;3.70;99.90;;;;;;4970342;28;20157;-69
2022/01/01 07:32:53;;;;;;;28.90;12.63;;;3.70;99.90;;;;;;4969759;28;20046;-69
2022/01/01 07:35:20;;;;;;;26.52;11.45;;;3.70;99.90;;;;;;4971518;28;20034;-69
2022/01/01 07:37:46;;;;;;;6.63;4.55;;;3.60;99.90;;;;;;4970217;28;20401;-69
2022/01/01 07:40:14;;;;;;;6.18;3.30;;;3.60;99.90;;;;;;4971466;28;20034;-69
2022/01/01 07:42:40;;;;;;;7.03;4.47;;;3.50;99.90;;;;;;4967941;28;20042;-69
2022/01/01 07:45:07;;;;;;;6.18;3.65;;;3.50;99.90;;;;;;4969072;28;20047;-69
2022/01/01 07:47:33;;;;;;;4.38;3.17;;;3.40;99.90;;;;;;4971697;28;20035;-69
2022/01/01 07:49:59;;;;;;;4.47;3.53;;;3.30;99.90;;;;;;4967585;28;20100;-69
2022/01/01 07:52:24;;;;;;;3.45;2.88;;;3.20;99.90;;;;;;4970026;28;20042;-70
2022/01/01 07:54:50;;;;;;;6.13;3.08;;;3.30;99.90;;;;;;4969705;28;20038;-69
2022/01/01 07:57:16;;;;;;;4.25;2.70;;;3.30;99.90;;;;;;4967691;28;20038;-69
2022/01/01 07:59:41;;;;;;;3.88;3.30;;;3.40;99.90;;;;;;4969365;28;20038;-69
2022/01/01 08:02:08;;;;;;;4.55;2.67;;;3.40;99.90;;;;;;4968184;28;20046;-69
2022/01/01 08:04:34;;;;;;;5.78;3.08;;;3.40;99.90;;;;;;4972380;28;20123;-69
2022/01/01 08:07:01;;;;;;;4.45;3.53;;;3.30;99.90;;;;;;4968054;28;20034;-69
2022/01/01 08:09:28;;;;;;;5.50;3.33;;;3.20;99.90;;;;;;4969165;28;20053;-69
2022/01/01 08:11:54;;;;;;;5.75;3.65;;;3.10;99.90;;;;;;4971987;28;20116;-69
2022/01/01 08:14:20;;;;;;;4.10;3.22;;;3.10;99.90;;;;;;4971441;28;20500;-69
2022/01/01 08:17:00;;;;;;;6.45;3.20;;;3.10;99.90;;;;;;4970827;28;20038;-69
2022/01/01 08:19:26;;;;;;;3.33;2.67;;;3.10;99.90;;;;;;4969694;28;20034;-69
2022/01/01 08:21:53;;;;;;;4.20;2.95;;;3.10;99.90;;;;;;4987315;28;20239;-69
2022/01/01 08:24:19;;;;;;;6.05;3.22;;;3.10;99.90;;;;;;4974520;28;20044;-69
2022/01/01 08:26:44;;;;;;;4.32;2.92;;;3.30;99.90;;;;;;4979250;28;20034;-69
2022/01/01 08:29:10;;;;;;;6.35;3.78;;;3.30;99.90;;;;;;4985652;28;20053;-69
2022/01/01 08:31:36;;;;;;;3.33;2.90;;;3.40;99.90;;;;;;4968936;28;20038;-69
2022/01/01 08:34:01;;;;;;;6.18;3.50;;;3.50;99.90;;;;;;4969906;28;20482;-67
2022/01/01 08:36:27;;;;;;;4.22;2.88;;;3.50;99.90;;;;;;4976028;28;20128;-67
2022/01/01 08:38:53;;;;;;;5.50;3.45;;;3.60;99.90;;;;;;4979600;28;20026;-67
2022/01/01 08:41:18;;;;;;;6.18;3.30;;;3.70;99.90;;;;;;4975752;28;20583;-67
2022/01/01 08:43:44;;;;;;;6.85;3.60;;;3.70;99.90;;;;;;4973787;28;20174;-67
2022/01/01 08:46:10;;;;;;;6.90;3.78;;;3.80;99.90;;;;;;4975426;28;20053;-69
2022/01/01 08:48:36;;;;;;;5.22;3.33;;;3.80;99.90;;;;;;4969511;28;20141;-69
2022/01/01 08:51:19;;;;;;;5.68;3.55;;;3.80;99.90;;;;;;4971437;28;20045;-69
2022/01/01 08:53:46;;;;;;;3.75;3.38;;;3.80;99.90;;;;;;4971706;28;20042;-68
2022/01/01 08:56:11;;;;;;;4.20;3.13;;;3.90;99.90;;;;;;4979712;28;20164;-67
2022/01/01 08:58:37;;;;;;;4.47;3.83;;;4.00;99.90;;;;;;4974862;28;20077;-67
2022/01/01 09:01:03;;;;;;;4.57;3.50;;;4.00;99.90;;;;;;4978482;28;20042;-67
2022/01/01 09:03:30;;;;;;;5.47;3.20;;;4.00;99.90;;;;;;4976079;28;20054;-67
2022/01/01 09:05:56;;;;;;;7.93;3.97;;;4.20;99.90;;;;;;4967821;28;20023;-67
2022/01/01 09:08:21;;;;;;;8.70;4.20;;;4.20;99.90;;;;;;4976125;28;20034;-67
2022/01/01 09:10:47;;;;;;;6.43;4.43;;;4.30;99.90;;;;;;4974442;28;20092;-67
2022/01/01 09:13:13;;;;;;;8.45;5.25;;;4.40;99.90;;;;;;4973200;28;20034;-67
2022/01/01 09:15:38;;;;;;;8.27;4.65;;;4.50;99.90;;;;;;4979747;28;20038;-67
2022/01/01 09:18:04;;;;;;;7.28;4.40;;;4.60;99.90;;;;;;4979621;28;20026;-67
2022/01/01 09:20:30;;;;;;;6.90;4.93;;;4.60;99.90;;;;;;4980565;28;20038;-67
2022/01/01 09:22:55;;;;;;;8.75;5.30;;;4.70;99.90;;;;;;4981812;28;20066;-67
2022/01/01 09:25:21;;;;;;;5.72;4.30;;;4.80;99.90;;;;;;4974724;28;21581;-67
2022/01/01 09:27:47;;;;;;;8.15;4.65;;;4.90;99.90;;;;;;4979269;28;20734;-67
2022/01/01 09:30:12;;;;;;;8.63;4.78;;;5.00;99.90;;;;;;4978012;28;20038;-67
2022/01/01 09:32:38;;;;;;;7.80;4.80;;;5.00;99.90;;;;;;4979155;28;21967;-68
2022/01/01 09:35:05;;;;;;;6.03;4.55;;;5.10;99.90;;;;;;4984392;28;20080;-68
2022/01/01 09:38:30;;;;;;;6.95;5.07;;;5.20;99.90;;;;;;5045093;28;21150;-48
2022/01/01 09:40:57;;;;;;;8.98;5.00;;;5.30;99.90;;;;;;5028879;28;20132;-47
2022/01/01 09:43:24;;;;;;;7.88;4.45;;;5.40;99.90;;;;;;5031800;28;20037;-48
2022/01/01 09:45:51;;;;;;;6.80;4.70;;;5.50;99.90;;;;;;5028573;28;20060;-48
2022/01/01 09:48:19;;;;;;;10.43;5.18;;;5.60;99.90;;;;;;5025260;28;20111;-48
2022/01/01 09:50:48;;;;;;;;;;;5.70;99.90;;;;;;5020479;28;20029;-48
2022/01/01 09:53:13;;;;;;;9.38;5.20;;;5.80;99.90;;;;;;5024444;28;19917;-48
2022/01/01 09:55:40;;;;;;;11.48;5.40;;;5.80;99.90;;;;;;5021105;28;22002;-48
2022/01/01 09:58:06;;;;;;;10.18;5.68;;;5.90;99.90;;;;;;5019848;28;20037;-47
2022/01/01 10:00:31;;;;;;;8.63;5.32;;;6.10;99.90;;;;;;5032947;28;20259;-48
2022/01/01 10:02:57;;;;;;;9.32;5.30;;;6.20;99.90;;;;;;5025819;28;20056;-47
2022/01/01 10:05:23;;;;;;;10.65;5.35;;;6.30;99.90;;;;;;5027398;28;20025;-48
2022/01/01 10:07:49;;;;;;;9.52;5.32;;;6.30;99.90;;;;;;5021695;28;20037;-48
2022/01/01 10:10:23;;;;;;;9.07;4.97;;;6.40;99.90;;;;;;5024517;28;20033;-47
2022/01/01 10:12:49;;;;;;;7.38;4.13;;;6.50;99.90;;;;;;5033068;28;20037;-48
2022/01/01 10:15:15;;;;;;;9.15;5.05;;;6.60;99.90;;;;;;5026679;28;20053;-48
2022/01/01 10:17:41;;;;;;;8.88;4.78;;;6.60;99.90;;;;;;5032934;28;20120;-47
2022/01/01 10:20:08;;;;;;;9.43;4.47;;;6.70;99.90;;;;;;5021816;28;20049;-48
2022/01/01 10:22:35;;;;;;;7.40;4.30;;;6.80;99.90;;;;;;5028757;28;20448;-48
2022/01/01 10:28:05;;;;;;;8.75;4.60;;;7.00;99.90;;;;;;5018317;28;20056;-47
2022/01/01 10:30:36;;;;;;;10.13;4.95;;;7.10;99.90;;;;;;5016295;28;20064;-48
2022/01/01 10:33:04;;;;;;;9.73;4.97;;;7.10;99.90;;;;;;5019232;28;20029;-48
2022/01/01 10:35:34;;;;;;;;;;;7.20;99.90;;;;;;5019495;28;20022;-47
2022/01/01 10:37:59;;;;;;;7.95;4.03;;;7.30;99.90;;;;;;5019716;28;20011;-48
2022/01/01 10:40:27;;;;;;;8.52;4.25;;;7.30;99.90;;;;;;5018749;28;20365;-47
2022/01/01 10:42:53;;;;;;;7.20;4.13;;;7.40;99.90;;;;;;5020720;28;20072;-47
2022/01/01 10:45:46;;;;;;;9.43;4.40;;;7.50;99.90;;;;;;5017875;28;20124;-48
2022/01/01 10:48:38;;;;;;;7.65;4.15;;;7.60;99.90;;;;;;5015439;28;20444;-48
2022/01/01 10:51:09;;;;;;;5.70;3.80;;;7.70;99.90;;;;;;5014834;28;20137;-48
2022/01/01 10:53:35;;;;;;;5.85;3.88;;;7.70;99.90;;;;;;5025347;28;20155;-48
2022/01/01 10:56:22;;;;;;;9.20;4.22;;;7.80;99.90;;;;;;5013525;28;20457;-48
2022/01/01 10:58:59;;;;;;;9.13;4.85;;;7.90;99.90;;;;;;5014944;28;20087;-47
2022/01/01 11:01:25;;;;;;;12.10;4.57;;;8.00;99.90;;;;;;5008593;28;20160;-47
2022/01/01 11:03:54;;;;;;;7.75;4.20;;;8.00;99.90;;;;;;5013186;28;20107;-48
2022/01/01 11:06:20;;;;;;;8.07;4.50;;;8.00;99.90;;;;;;5012093;28;20026;-48
2022/01/01 11:08:47;;;;;;;6.93;4.72;;;8.10;99.90;;;;;;5008796;28;20581;-48
2022/01/01 11:11:14;;;;;;;8.15;4.32;;;8.10;99.90;;;;;;5011490;28;20025;-47
2022/01/01 11:13:41;;;;;;;6.38;3.65;;;8.20;99.90;;;;;;5022527;28;20437;-47
2022/01/01 11:16:08;;;;;;;8.55;4.68;;;8.30;99.90;;;;;;5012861;28;20056;-48
2022/01/01 11:18:35;;;;;;;8.15;4.22;;;8.40;99.90;;;;;;5011243;28;20073;-48
2022/01/01 11:21:03;;;;;;;7.93;4.40;;;8.40;99.90;;;;;;5011332;28;20065;-47
2022/01/01 11:23:28;;;;;;;6.73;4.00;;;8.40;99.90;;;;;;5019971;28;20986;-48
2022/01/01 11:25:54;;;;;;;7.60;4.47;;;8.50;99.90;;;;;;5011034;28;20093;-47
2022/01/01 11:28:22;;;;;;;8.43;4.13;;;8.50;99.90;;;;;;5015924;28;20655;-48
2022/01/01 11:30:52;;;;;;;8.48;4.10;;;8.60;99.90;;;;;;5007584;28;20030;-47
2022/01/01 11:33:26;;;;;;;6.65;4.00;;;8.70;99.90;;;;;;5014774;28;20492;-47
2022/01/01 11:35:57;;;;;;;8.10;4.15;;;8.70;99.90;;;;;;5010831;28;20045;-47
2022/01/01 11:38:27;;;;;;;8.80;4.00;;;8.70;99.90;;;;;;5014940;28;20045;-47
2022/01/01 11:41:04;;;;;;;8.77;4.70;;;8.80;99.90;;;;;;5020224;28;20056;-48
2022/01/01 11:43:38;;;;;;;9.23;4.63;;;8.80;99.90;;;;;;5023544;28;20052;-47
2022/01/01 11:46:07;;;;;;;9.02;4.38;;;8.80;99.90;;;;;;5015705;28;20083;-47
2022/01/01 11:48:41;;;;;;;;;;;8.80;99.90;;;;;;5015266;28;20081;-47
2022/01/01 11:51:35;;;;;;;10.57;4.07;;;9.00;99.90;;;;;;5020667;28;19909;-47
2022/01/01 11:54:26;;;;;;;9.40;4.03;;;9.00;99.90;;;;;;5017740;28;20417;-48
2022/01/01 11:56:58;;;;;;;9.55;4.80;;;8.90;99.90;;;;;;5021916;28;20457;-47
2022/01/01 11:59:23;;;;;;;8.02;4.35;;;9.00;99.90;;;;;;5027135;28;20034;-48
2022/01/01 12:01:52;;;;;;;8.10;4.80;;;9.00;99.90;;;;;;5011366;28;20860;-47
2022/01/01 12:04:35;;;;;;;6.63;3.97;;;9.00;99.90;;;;;;5023284;28;20403;-47
2022/01/01 12:07:15;;;;;;;9.07;4.45;;;9.10;99.90;;;;;;5012972;28;21637;-48
2022/01/01 12:10:06;;;;;;;7.80;3.95;;;9.10;99.90;;;;;;5014736;28;20033;-48
2022/01/01 12:12:38;;;;;;;6.85;3.97;;;9.20;99.90;;;;;;5015725;28;20044;-47
2022/01/01 12:15:07;;;;;;;6.35;4.00;;;9.20;99.90;;;;;;5009242;28;20022;-47
2022/01/01 12:17:53;;;;;;;7.50;3.85;;;9.30;99.90;;;;;;5018604;28;20072;-47
2022/01/01 12:20:25;;;;;;;9.10;4.18;;;9.40;99.90;;;;;;5011381;28;20041;-47
2022/01/01 12:22:52;;;;;;;12.00;4.65;;;9.40;99.90;;;;;;5006032;28;20034;-47
2022/01/01 12:25:22;;;;;;;8.85;4.35;;;9.40;99.90;;;;;;5009624;28;20687;-47
2022/01/01 12:27:51;;;;;;;7.18;3.70;;;9.40;99.90;;;;;;5007422;28;20398;-47
2022/01/01 12:30:37;;;;;;;8.43;3.80;;;9.50;99.90;;;;;;5013877;28;20033;-47
2022/01/01 12:33:04;;;;;;;7.25;3.50;;;9.60;99.90;;;;;;5015711;28;20040;-47
2022/01/01 12:35:43;;;;;;;8.38;3.75;;;9.60;99.90;;;;;;5017555;28;20026;-47
2022/01/01 12:38:14;;;;;;;6.85;3.75;;;9.70;99.90;;;;;;5017144;28;20136;-48
2022/01/01 12:41:08;;;;;;;9.10;3.97;;;9.70;99.90;;;;;;5014819;28;20092;-47
2022/01/01 12:43:43;;;;;;;8.48;3.78;;;9.70;99.90;;;;;;5010499;28;20029;-47
2022/01/01 12:46:11;;;;;;;8.35;4.28;;;9.80;99.90;;;;;;5010469;28;20026;-48
2022/01/01 12:48:37;;;;;;;8.50;3.97;;;9.80;99.90;;;;;;5012432;28;20567;-48
2022/01/01 12:51:11;;;;;;;6.90;3.85;;;9.80;99.90;;;;;;5006241;28;20039;-47
2022/01/01 12:53:39;;;;;;;9.02;4.13;;;9.90;99.90;;;;;;5004840;28;20038;-48
2022/01/01 12:56:11;;;;;;;5.53;3.20;;;9.90;99.90;;;;;;5013676;28;20018;-47
2022/01/01 12:58:40;;;;;;;9.13;3.47;;;9.90;99.90;;;;;;5005888;28;20040;-48
2022/01/01 13:01:17;;;;;;;11.13;4.20;;;9.90;99.90;;;;;;5014698;28;20030;-47
2022/01/01 13:03:49;;;;;;;7.53;3.75;;;10.00;99.90;;;;;;5007839;28;20029;-47